Time;durP1;ratioP1;P1;durP2;ratioP2;P2;SDS_P1;SDS_P2;PMS_P1;PMS_P2;Temp;Humidity;BMP_temperature;BMP_pressure;BME280_temperature;BME280_humidity;BME280_pressure;Samples;Min_cycle;Max_cycle;Signal;HPM_P1;HPM_P2
2022/06/18 00:03:01;;;;;;;2.80;2.60;;;24.10;92.70;;;;;;6164254;28;90213;-96
2022/06/18 00:06:03;;;;;;;2.92;2.72;;;24.10;92.80;;;;;;6171176;28;89226;-96
2022/06/18 00:09:05;;;;;;;2.88;2.67;;;24.10;92.80;;;;;;6176849;28;89186;-96
2022/06/18 00:15:38;;;;;;;2.88;2.67;;;24.10;92.70;;;;;;6172553;28;87085;-96
2022/06/18 00:18:41;;;;;;;2.90;2.70;;;24.10;92.50;;;;;;6183209;28;89413;-96
2022/06/18 00:21:44;;;;;;;3.03;2.83;;;24.10;92.40;;;;;;6160844;28;88122;-96
2022/06/18 00:24:48;;;;;;;3.17;2.88;;;24.10;92.40;;;;;;6160427;28;88005;-96
2022/06/18 00:27:55;;;;;;;3.00;2.80;;;24.10;92.30;;;;;;6168071;28;89391;-96
2022/06/18 00:30:59;;;;;;;2.92;2.72;;;24.10;92.20;;;;;;6168569;28;89084;-96
2022/06/18 00:34:04;;;;;;;3.40;3.10;;;24.10;92.10;;;;;;6161554;28;88688;-96
2022/06/18 00:37:16;;;;;;;3.00;2.80;;;24.10;92.20;;;;;;6177064;28;92167;-96
2022/06/18 00:40:24;;;;;;;3.00;2.80;;;24.10;92.20;;;;;;6166422;28;88397;-96
2022/06/18 00:43:33;;;;;;;2.95;2.75;;;24.10;92.10;;;;;;6165075;28;88614;-96
2022/06/18 00:46:43;;;;;;;2.97;2.78;;;24.00;92.10;;;;;;6163708;28;87201;-96
2022/06/18 00:49:50;;;;;;;2.88;2.67;;;24.10;92.40;;;;;;6178476;28;88464;-96
2022/06/18 00:52:56;;;;;;;3.05;2.75;;;24.00;92.40;;;;;;6171344;28;89504;-96
2022/06/18 00:56:03;;;;;;;3.22;2.90;;;24.00;92.50;;;;;;6160014;28;88638;-96
2022/06/18 00:59:14;;;;;;;3.42;3.20;;;24.10;92.60;;;;;;6170189;28;90049;-96
2022/06/18 01:02:20;;;;;;;3.00;2.80;;;24.10;92.50;;;;;;6159164;28;89411;-96
2022/06/18 01:05:24;;;;;;;3.30;3.00;;;24.10;92.30;;;;;;6159946;28;90088;-96
2022/06/18 01:08:29;;;;;;;3.22;2.92;;;24.10;92.20;;;;;;6158886;28;89037;-96
2022/06/18 01:11:35;;;;;;;3.13;2.92;;;24.10;92.20;;;;;;6172099;28;87932;-96
2022/06/18 01:14:40;;;;;;;3.92;3.63;;;24.10;92.10;;;;;;6171956;28;89234;-96
2022/06/18 01:17:43;;;;;;;3.00;2.80;;;24.10;92.10;;;;;;6168638;28;88565;-96
2022/06/18 01:20:49;;;;;;;3.10;2.90;;;24.10;92.00;;;;;;6171994;28;88389;-96
2022/06/18 01:23:57;;;;;;;3.50;3.22;;;24.10;92.00;;;;;;6174085;28;88969;-96
2022/06/18 01:27:01;;;;;;;3.50;3.20;;;24.10;91.90;;;;;;6166887;28;87812;-96
2022/06/18 01:30:06;;;;;;;3.25;2.90;;;24.10;91.90;;;;;;6171178;28;88273;-96
2022/06/18 01:33:08;;;;;;;3.10;2.90;;;24.00;91.90;;;;;;6161091;28;89450;-96
2022/06/18 01:36:12;;;;;;;3.10;2.80;;;24.10;92.00;;;;;;6157271;28;90349;-96
2022/06/18 01:39:18;;;;;;;3.00;2.80;;;24.00;92.20;;;;;;6170265;28;89107;-96
2022/06/18 01:42:27;;;;;;;3.25;2.90;;;24.00;92.30;;;;;;6175206;28;87653;-96
2022/06/18 01:45:34;;;;;;;3.10;2.80;;;24.00;92.30;;;;;;6171615;28;89440;-96
2022/06/18 01:48:39;;;;;;;3.20;3.00;;;24.00;92.30;;;;;;6160846;28;88994;-96
2022/06/18 01:51:47;;;;;;;3.70;3.33;;;24.00;92.20;;;;;;6167899;28;88298;-96
2022/06/18 01:54:56;;;;;;;2.95;2.75;;;24.00;92.00;;;;;;6168969;28;87141;-96
2022/06/18 01:58:04;;;;;;;3.30;3.10;;;24.00;91.90;;;;;;6169207;28;88187;-96
2022/06/18 02:01:14;;;;;;;3.25;3.05;;;24.00;91.90;;;;;;6180529;28;88192;-96
2022/06/18 02:04:19;;;;;;;3.40;3.10;;;24.10;91.90;;;;;;6165481;28;87321;-96
2022/06/18 02:07:21;;;;;;;3.22;2.92;;;24.00;91.80;;;;;;6171100;28;90088;-96
2022/06/18 02:10:28;;;;;;;3.33;3.03;;;24.10;91.90;;;;;;6169580;28;88411;-96
2022/06/18 02:13:38;;;;;;;3.05;2.85;;;24.00;91.80;;;;;;6172523;28;89127;-96
2022/06/18 02:16:44;;;;;;;3.50;3.20;;;24.00;91.80;;;;;;6178593;28;89286;-96
2022/06/18 02:19:50;;;;;;;3.13;2.90;;;24.00;91.80;;;;;;6171888;28;88277;-96
2022/06/18 02:22:55;;;;;;;3.25;3.05;;;24.00;91.80;;;;;;6173433;28;87974;-96
2022/06/18 02:25:59;;;;;;;3.17;2.95;;;24.00;92.00;;;;;;6171352;28;88989;-96
2022/06/18 02:29:04;;;;;;;3.35;3.05;;;24.00;92.10;;;;;;6171347;28;88725;-96
2022/06/18 02:32:15;;;;;;;3.25;2.97;;;24.00;92.20;;;;;;6161742;28;87982;-96
2022/06/18 02:35:17;;;;;;;3.00;2.80;;;24.00;92.20;;;;;;6171994;28;89032;-96
2022/06/18 02:38:21;;;;;;;3.15;2.85;;;24.00;92.20;;;;;;6171152;28;88934;-96
2022/06/18 02:41:27;;;;;;;3.00;2.80;;;24.00;92.00;;;;;;6175027;28;89871;-96
2022/06/18 02:44:31;;;;;;;3.38;3.08;;;24.00;92.00;;;;;;6181176;28;89314;-96
2022/06/18 02:47:34;;;;;;;3.47;3.17;;;24.00;91.90;;;;;;6166500;28;88220;-96
2022/06/18 02:50:40;;;;;;;3.40;3.20;;;24.00;91.80;;;;;;6177639;28;89539;-96
2022/06/18 02:53:42;;;;;;;3.22;3.00;;;24.00;91.80;;;;;;6184538;28;90586;-96
2022/06/18 02:56:44;;;;;;;3.22;3.03;;;24.00;91.80;;;;;;6184933;28;92252;-96
2022/06/18 02:59:51;;;;;;;3.50;3.20;;;24.00;91.70;;;;;;6185654;28;87175;-96
2022/06/18 03:02:53;;;;;;;3.60;3.30;;;24.00;91.80;;;;;;6164019;28;90837;-96
2022/06/18 03:05:55;;;;;;;3.70;3.40;;;24.00;91.80;;;;;;6173344;28;89506;-96
2022/06/18 03:08:58;;;;;;;3.83;3.53;;;24.00;91.70;;;;;;6176524;28;89253;-96
2022/06/18 03:12:08;;;;;;;3.25;3.03;;;24.00;91.80;;;;;;6168584;28;87957;-96
2022/06/18 03:15:11;;;;;;;3.50;3.20;;;24.00;91.90;;;;;;6166465;28;89258;-96
2022/06/18 03:18:15;;;;;;;3.13;2.92;;;24.00;92.00;;;;;;6173306;28;89032;-96
2022/06/18 03:21:22;;;;;;;3.63;3.33;;;24.00;92.10;;;;;;6160758;28;89167;-96
2022/06/18 03:24:24;;;;;;;3.80;3.50;;;23.90;92.10;;;;;;6161003;28;88904;-96
2022/06/18 03:27:27;;;;;;;4.18;3.78;;;24.00;92.00;;;;;;6160425;28;89373;-96
2022/06/18 03:30:30;;;;;;;3.90;3.60;;;24.00;92.00;;;;;;6160653;28;86906;-96
2022/06/18 03:33:33;;;;;;;3.80;3.50;;;24.00;91.90;;;;;;6170043;28;90121;-96
2022/06/18 03:36:35;;;;;;;4.50;3.88;;;24.00;91.80;;;;;;6174283;28;89472;-96
2022/06/18 03:39:37;;;;;;;4.38;3.97;;;24.00;91.70;;;;;;6181629;28;90454;-96
2022/06/18 03:42:41;;;;;;;4.68;4.28;;;24.00;91.70;;;;;;6183973;28;88086;-96
2022/06/18 03:45:48;;;;;;;4.80;4.40;;;24.00;91.70;;;;;;6170363;28;88449;-96
2022/06/18 03:48:54;;;;;;;4.60;4.20;;;24.00;91.70;;;;;;6163866;28;88532;-96
2022/06/18 03:51:57;;;;;;;4.30;4.00;;;24.00;91.70;;;;;;6159675;28;89093;-96
2022/06/18 03:54:59;;;;;;;4.20;3.90;;;24.00;91.70;;;;;;6163507;28;89091;-96
2022/06/18 03:58:01;;;;;;;4.50;4.10;;;23.90;91.70;;;;;;6170978;28;89409;-96
2022/06/18 04:01:05;;;;;;;4.40;4.00;;;24.00;91.90;;;;;;6165129;28;87553;-96
2022/06/18 04:04:09;;;;;;;4.13;3.83;;;24.00;92.00;;;;;;6159357;28;89132;-96
2022/06/18 04:07:18;;;;;;;4.65;4.25;;;24.00;92.00;;;;;;6174532;28;87907;-96
2022/06/18 04:10:22;;;;;;;4.70;4.30;;;24.00;92.10;;;;;;6169433;28;90085;-96
2022/06/18 04:13:28;;;;;;;5.10;4.60;;;24.00;92.00;;;;;;6174151;28;89191;-96
2022/06/18 04:16:33;;;;;;;4.65;4.25;;;24.00;92.00;;;;;;6170762;28;89392;-96
2022/06/18 04:19:35;;;;;;;4.40;4.10;;;24.00;92.40;;;;;;6183247;28;89157;-96
2022/06/18 04:22:37;;;;;;;4.70;4.30;;;24.00;92.00;;;;;;6162004;28;89770;-96
2022/06/18 04:25:39;;;;;;;4.80;4.40;;;24.00;92.00;;;;;;6172219;28;89310;-96
2022/06/18 04:28:42;;;;;;;4.60;4.20;;;24.00;92.00;;;;;;6171290;28;87086;-96
2022/06/18 04:31:45;;;;;;;4.75;4.35;;;24.00;92.10;;;;;;6171616;28;88754;-96
2022/06/18 04:34:49;;;;;;;5.05;4.55;;;24.00;92.20;;;;;;6158643;28;89050;-96
2022/06/18 04:37:53;;;;;;;4.80;4.40;;;24.00;92.20;;;;;;6175956;28;89606;-96
2022/06/18 04:40:57;;;;;;;4.82;4.32;;;24.00;92.20;;;;;;6170454;28;91124;-96
2022/06/18 04:44:04;;;;;;;4.60;4.20;;;24.00;92.20;;;;;;6176564;28;90000;-96
2022/06/18 04:47:09;;;;;;;4.60;4.20;;;24.00;92.20;;;;;;6175614;28;87956;-96
2022/06/18 04:50:17;;;;;;;4.63;4.20;;;24.00;92.20;;;;;;6170114;28;89481;-96
2022/06/18 04:53:20;;;;;;;5.00;4.60;;;24.00;92.20;;;;;;6171205;28;89140;-96
2022/06/18 04:56:23;;;;;;;4.90;4.50;;;24.00;92.20;;;;;;6158730;28;88956;-96
2022/06/18 04:59:26;;;;;;;5.00;4.60;;;24.00;92.20;;;;;;6170946;28;87998;-96
2022/06/18 05:02:30;;;;;;;5.30;4.70;;;24.10;92.20;;;;;;6175997;28;87205;-96
2022/06/18 05:05:32;;;;;;;5.70;5.00;;;24.10;92.20;;;;;;6169018;28;87940;-96
2022/06/18 05:08:34;;;;;;;5.60;5.10;;;24.00;92.20;;;;;;6166455;28;88468;-96
2022/06/18 05:11:37;;;;;;;5.60;5.10;;;24.00;92.10;;;;;;6169016;28;90014;-96
2022/06/18 05:14:39;;;;;;;5.53;5.03;;;24.10;92.10;;;;;;6164244;28;88025;-96
2022/06/18 05:17:44;;;;;;;5.43;4.93;;;24.10;92.20;;;;;;6158200;28;89219;-96
2022/06/18 05:20:51;;;;;;;5.40;4.90;;;24.10;92.20;;;;;;6159864;28;87951;-96
2022/06/18 05:23:53;;;;;;;5.53;5.03;;;24.10;92.10;;;;;;6163616;28;89280;-96
2022/06/18 05:26:58;;;;;;;5.72;5.22;;;24.00;92.10;;;;;;6165627;28;88303;-96
2022/06/18 05:30:01;;;;;;;5.40;4.90;;;24.10;92.10;;;;;;6166891;28;89020;-96
2022/06/18 05:33:05;;;;;;;5.15;4.75;;;24.10;92.00;;;;;;6162297;28;87592;-96
2022/06/18 05:36:10;;;;;;;5.43;4.93;;;24.10;92.10;;;;;;6179663;28;88128;-96
2022/06/18 05:39:16;;;;;;;4.90;4.50;;;24.00;92.10;;;;;;6173648;28;88287;-96
2022/06/18 05:42:19;;;;;;;5.13;4.63;;;24.10;92.10;;;;;;6176144;28;90443;-96
2022/06/18 05:45:21;;;;;;;4.93;4.53;;;24.00;92.10;;;;;;6164276;28;89060;-96
2022/06/18 05:48:25;;;;;;;5.55;5.05;;;24.00;92.10;;;;;;6170159;28;89047;-96
2022/06/18 05:51:27;;;;;;;5.10;4.70;;;24.00;92.10;;;;;;6172385;28;88523;-96
2022/06/18 05:54:29;;;;;;;5.32;4.85;;;24.00;92.10;;;;;;6180612;28;90419;-96
2022/06/18 05:57:32;;;;;;;5.57;5.07;;;24.00;92.10;;;;;;6159413;28;89459;-96
2022/06/18 06:00:34;;;;;;;5.32;4.82;;;24.10;92.10;;;;;;6159138;28;89060;-96
2022/06/18 06:03:38;;;;;;;5.45;4.97;;;24.00;92.10;;;;;;6170594;28;86498;-96
2022/06/18 06:06:40;;;;;;;5.20;4.70;;;24.10;92.10;;;;;;6158902;28;89266;-96
2022/06/18 06:13:02;;;;;;;5.38;4.88;;;24.00;92.10;;;;;;6169520;28;88633;-96
2022/06/18 06:16:05;;;;;;;5.95;4.80;;;24.00;92.10;;;;;;6164371;28;88981;-96
2022/06/18 06:19:10;;;;;;;4.78;4.40;;;24.00;92.10;;;;;;6161170;28;89210;-96
2022/06/18 06:22:12;;;;;;;5.15;4.75;;;24.10;92.20;;;;;;6160905;28;90245;-96
2022/06/18 06:25:15;;;;;;;5.35;4.90;;;24.00;92.20;;;;;;6156870;28;89582;-96
2022/06/18 06:28:19;;;;;;;4.78;4.38;;;24.00;92.20;;;;;;6159207;28;89611;-96
2022/06/18 06:31:21;;;;;;;5.47;4.97;;;24.10;92.30;;;;;;6164757;28;88514;-96
2022/06/18 06:34:25;;;;;;;5.28;4.88;;;24.10;92.30;;;;;;6178231;28;87368;-96
2022/06/18 06:37:27;;;;;;;5.00;4.60;;;24.10;92.20;;;;;;6173852;28;87972;-96
2022/06/18 06:40:32;;;;;;;5.10;4.70;;;24.00;92.20;;;;;;6161904;28;89356;-96
2022/06/18 06:43:35;;;;;;;4.97;4.57;;;24.10;92.30;;;;;;6161636;28;90599;-96
2022/06/18 06:46:37;;;;;;;5.25;4.85;;;24.10;92.30;;;;;;6172734;28;87156;-96
2022/06/18 06:49:44;;;;;;;5.50;5.00;;;24.10;92.40;;;;;;6161217;28;89295;-96
2022/06/18 06:52:48;;;;;;;5.00;4.60;;;24.10;92.40;;;;;;6156680;28;89030;-96
2022/06/18 06:59:12;;;;;;;4.90;4.50;;;24.10;92.40;;;;;;6170810;28;87111;-96
2022/06/18 07:02:17;;;;;;;5.13;4.70;;;24.10;92.40;;;;;;6165575;28;89363;-96
2022/06/18 07:05:21;;;;;;;5.30;4.80;;;24.10;92.40;;;;;;6156826;28;89200;-96
2022/06/18 07:08:23;;;;;;;4.65;4.25;;;24.10;92.40;;;;;;6172705;28;88788;-96
2022/06/18 07:11:28;;;;;;;4.53;4.13;;;24.10;92.50;;;;;;6171597;28;88283;-96
2022/06/18 07:14:30;;;;;;;4.72;4.32;;;24.10;92.50;;;;;;6168084;28;90119;-96
2022/06/18 07:17:33;;;;;;;4.88;4.45;;;24.10;92.40;;;;;;6162254;28;88890;-96
2022/06/18 07:20:37;;;;;;;4.65;4.30;;;24.10;92.40;;;;;;6160857;28;88294;-96
2022/06/18 07:23:41;;;;;;;4.72;4.32;;;24.10;92.40;;;;;;6160659;28;89169;-96
2022/06/18 07:26:46;;;;;;;4.57;4.18;;;24.10;92.40;;;;;;6182575;28;90690;-96
2022/06/18 07:29:48;;;;;;;4.53;4.22;;;24.10;92.40;;;;;;6162653;28;90661;-96
2022/06/18 07:32:51;;;;;;;4.68;4.28;;;24.10;92.30;;;;;;6159746;28;88214;-96
2022/06/18 07:35:57;;;;;;;4.80;4.40;;;24.10;92.30;;;;;;6178312;28;88365;-96
2022/06/18 07:39:00;;;;;;;4.80;4.40;;;24.10;92.20;;;;;;6179388;28;87965;-96
2022/06/18 07:42:06;;;;;;;4.90;4.35;;;24.10;92.20;;;;;;6165517;28;89480;-96
2022/06/18 07:45:16;;;;;;;4.70;4.30;;;24.10;92.20;;;;;;6170232;28;89076;-96
2022/06/18 07:48:19;;;;;;;5.05;4.28;;;24.10;92.20;;;;;;6162924;28;88682;-96
2022/06/18 07:51:24;;;;;;;4.38;3.97;;;24.10;92.10;;;;;;6172520;28;89471;-96
2022/06/18 07:54:28;;;;;;;4.40;4.00;;;24.10;92.10;;;;;;6162747;28;88410;-96
2022/06/18 07:57:33;;;;;;;4.47;4.07;;;24.10;92.10;;;;;;6172804;28;89546;-96
2022/06/18 08:00:39;;;;;;;4.00;3.70;;;24.10;92.10;;;;;;6169063;28;89439;-96
2022/06/18 08:03:41;;;;;;;4.30;4.00;;;24.10;92.00;;;;;;6167447;28;87899;-96
2022/06/18 08:06:44;;;;;;;4.57;4.18;;;24.10;92.10;;;;;;6167345;28;86768;-96
2022/06/18 08:09:46;;;;;;;4.47;4.07;;;24.10;92.00;;;;;;6175294;28;89110;-96
2022/06/18 08:12:51;;;;;;;4.43;4.10;;;24.10;92.00;;;;;;6175771;28;88238;-96
2022/06/18 08:15:53;;;;;;;4.30;4.00;;;24.10;92.00;;;;;;6172848;28;89264;-96
2022/06/18 08:18:58;;;;;;;4.43;4.03;;;24.10;91.90;;;;;;6165586;28;87957;-96
2022/06/18 08:22:02;;;;;;;4.38;4.05;;;24.10;91.90;;;;;;6169363;28;89025;-96
2022/06/18 08:25:05;;;;;;;4.35;3.97;;;24.10;91.90;;;;;;6175226;28;88208;-96
2022/06/18 08:28:12;;;;;;;4.35;3.95;;;24.20;91.90;;;;;;6158629;28;88484;-96
2022/06/18 08:31:14;;;;;;;4.50;3.80;;;24.10;91.80;;;;;;6176716;28;89095;-96
2022/06/18 08:34:16;;;;;;;4.40;4.00;;;24.10;91.80;;;;;;6165951;28;89062;-96
2022/06/18 08:37:20;;;;;;;4.70;4.30;;;24.10;91.80;;;;;;6159602;28;88379;-96
2022/06/18 08:40:37;;;;;;;4.40;4.00;;;24.10;91.80;;;;;;6171067;28;87971;-96
2022/06/18 08:44:09;;;;;;;4.20;3.90;;;24.10;91.80;;;;;;6158823;28;89908;-96
2022/06/18 08:47:34;;;;;;;4.40;4.00;;;24.20;92.10;;;;;;6158073;28;89415;-96
2022/06/18 08:50:48;;;;;;;4.07;3.78;;;24.10;91.70;;;;;;6158515;28;88246;-96
2022/06/18 08:54:25;;;;;;;3.92;3.63;;;24.10;91.70;;;;;;6179833;28;87386;-96
2022/06/18 08:57:35;;;;;;;4.20;3.80;;;24.10;91.80;;;;;;6158503;28;88259;-96
2022/06/18 09:00:45;;;;;;;4.55;4.15;;;24.20;91.90;;;;;;6173287;28;90163;-96
2022/06/18 09:04:02;;;;;;;4.40;4.10;;;24.10;91.90;;;;;;6180796;28;88898;-96
2022/06/18 09:07:18;;;;;;;4.72;3.95;;;24.20;92.10;;;;;;6181073;28;87966;-96
2022/06/18 09:10:35;;;;;;;4.10;3.80;;;24.10;92.10;;;;;;6181933;28;87242;-96
2022/06/18 09:13:41;;;;;;;4.60;4.03;;;24.20;92.30;;;;;;6173843;28;88983;-96
2022/06/18 09:16:50;;;;;;;4.20;3.90;;;24.10;92.30;;;;;;6178803;28;89445;-96
2022/06/18 09:20:00;;;;;;;3.97;3.67;;;24.10;92.40;;;;;;6170762;28;90394;-96
2022/06/18 09:23:13;;;;;;;3.95;3.65;;;24.10;92.40;;;;;;6179817;28;89378;-96
2022/06/18 09:26:23;;;;;;;5.25;3.85;;;24.10;92.40;;;;;;6163698;28;89564;-96
2022/06/18 09:29:30;;;;;;;4.30;3.90;;;24.10;92.40;;;;;;6170086;28;88045;-96
2022/06/18 09:32:38;;;;;;;4.10;3.80;;;24.10;92.40;;;;;;6162576;28;88232;-96
2022/06/18 09:35:45;;;;;;;4.03;3.72;;;24.20;92.40;;;;;;6170591;28;89882;-96
2022/06/18 09:38:56;;;;;;;3.80;3.50;;;24.10;92.40;;;;;;6163634;28;88290;-96
2022/06/18 09:42:04;;;;;;;3.63;3.40;;;24.10;92.40;;;;;;6175308;28;88667;-96
2022/06/18 09:45:12;;;;;;;4.07;3.78;;;24.20;92.40;;;;;;6168448;28;88962;-96
2022/06/18 09:48:14;;;;;;;3.75;3.50;;;24.20;92.40;;;;;;6168622;28;89475;-96
2022/06/18 09:51:27;;;;;;;3.65;3.45;;;24.20;92.40;;;;;;6179687;28;90881;-96
2022/06/18 09:54:34;;;;;;;4.13;3.78;;;24.20;92.40;;;;;;6158030;28;89064;-96
2022/06/18 09:57:41;;;;;;;4.22;3.80;;;24.20;92.30;;;;;;6162814;28;89547;-96
2022/06/18 10:00:46;;;;;;;3.85;3.55;;;24.20;92.30;;;;;;6165117;28;89710;-96
2022/06/18 10:07:12;;;;;;;4.00;3.60;;;24.10;91.70;;;;;;6173512;28;87296;-96
2022/06/18 10:10:19;;;;;;;4.72;3.40;;;24.20;91.50;;;;;;6163591;28;90250;-96
2022/06/18 10:13:26;;;;;;;3.58;3.33;;;24.10;91.40;;;;;;6164686;28;88000;-96
2022/06/18 10:16:39;;;;;;;3.70;3.40;;;24.20;91.60;;;;;;6161579;28;88054;-96
2022/06/18 10:19:57;;;;;;;3.63;3.42;;;24.20;91.50;;;;;;6169113;28;89401;-96
2022/06/18 10:23:10;;;;;;;4.07;3.60;;;24.20;91.60;;;;;;6159452;28;89866;-96
2022/06/18 10:26:29;;;;;;;3.35;3.15;;;24.10;91.60;;;;;;6162692;28;90990;-96
2022/06/18 10:29:38;;;;;;;3.63;3.33;;;24.20;91.80;;;;;;6164436;28;91510;-96
2022/06/18 10:32:51;;;;;;;3.67;3.38;;;24.20;91.90;;;;;;6164707;28;89690;-96
2022/06/18 10:36:02;;;;;;;3.80;3.50;;;24.20;92.00;;;;;;6176807;28;89190;-96
2022/06/18 10:39:16;;;;;;;5.00;3.83;;;24.20;91.80;;;;;;6174253;28;89127;-96
2022/06/18 10:42:31;;;;;;;3.97;3.58;;;24.20;91.70;;;;;;6179312;28;88426;-96
2022/06/18 10:45:42;;;;;;;4.28;3.63;;;24.20;91.60;;;;;;6166253;28;88711;-96
2022/06/18 10:48:47;;;;;;;3.83;3.53;;;24.20;91.40;;;;;;6161996;28;88200;-96
2022/06/18 10:51:50;;;;;;;3.60;3.30;;;24.10;91.40;;;;;;6173852;28;88221;-96
2022/06/18 10:55:05;;;;;;;3.90;3.60;;;24.20;91.50;;;;;;6175710;28;88933;-96
2022/06/18 10:58:10;;;;;;;3.22;3.03;;;24.20;91.50;;;;;;6185726;28;92004;-96
2022/06/18 11:01:15;;;;;;;3.72;3.35;;;24.20;91.30;;;;;;6177343;28;88876;-96
2022/06/18 11:04:23;;;;;;;3.88;3.47;;;24.20;91.40;;;;;;6166347;28;89433;-96
2022/06/18 11:07:28;;;;;;;3.60;3.30;;;24.20;91.30;;;;;;6166636;28;89216;-96
2022/06/18 11:10:36;;;;;;;3.63;3.33;;;24.20;91.40;;;;;;6164138;28;88277;-96
2022/06/18 11:13:41;;;;;;;4.07;3.50;;;24.20;91.40;;;;;;6170106;28;89458;-96
2022/06/18 11:16:46;;;;;;;3.92;3.53;;;24.20;91.30;;;;;;6174449;28;87246;-96
2022/06/18 11:19:51;;;;;;;3.30;3.10;;;24.20;91.40;;;;;;6164716;28;88204;-96
2022/06/18 11:22:55;;;;;;;3.50;3.20;;;24.30;91.50;;;;;;6174777;28;87137;-95
2022/06/18 11:25:59;;;;;;;3.63;3.33;;;24.30;91.50;;;;;;6175049;28;88834;-96
2022/06/18 11:29:07;;;;;;;3.90;3.60;;;24.20;91.40;;;;;;6169732;28;87128;-96
2022/06/18 11:32:13;;;;;;;3.78;3.45;;;24.20;91.20;;;;;;6183997;28;87964;-96
2022/06/18 11:35:22;;;;;;;4.03;3.33;;;24.20;91.20;;;;;;6175330;28;88365;-96
2022/06/18 11:38:29;;;;;;;3.65;3.35;;;24.20;91.20;;;;;;6179319;28;88009;-96
2022/06/18 11:41:38;;;;;;;3.47;3.20;;;24.20;91.10;;;;;;6179575;28;89698;-96
2022/06/18 11:44:45;;;;;;;3.97;3.38;;;24.20;91.10;;;;;;6159993;28;87263;-96
2022/06/18 11:47:55;;;;;;;3.60;3.30;;;24.20;91.20;;;;;;6165779;28;87503;-96
2022/06/18 11:51:01;;;;;;;3.50;3.30;;;24.20;91.20;;;;;;6169654;28;87910;-96
2022/06/18 11:54:12;;;;;;;3.45;3.20;;;24.20;91.30;;;;;;6173928;28;88370;-96
2022/06/18 11:57:21;;;;;;;3.80;3.50;;;24.20;91.30;;;;;;6167319;28;89122;-96
2022/06/18 12:00:30;;;;;;;3.55;3.25;;;24.20;91.30;;;;;;6160367;28;89447;-96
2022/06/18 12:03:39;;;;;;;3.28;3.08;;;24.20;91.30;;;;;;6171239;28;88267;-96
2022/06/18 12:06:47;;;;;;;3.45;3.15;;;24.20;91.30;;;;;;6183236;28;89098;-96
2022/06/18 12:09:52;;;;;;;3.60;3.30;;;24.30;91.40;;;;;;6183665;28;88765;-95
2022/06/18 12:13:07;;;;;;;3.25;2.95;;;24.30;91.50;;;;;;6184734;28;87714;-96
2022/06/18 12:16:21;;;;;;;3.92;3.58;;;24.30;91.40;;;;;;6175717;28;89316;-96
2022/06/18 12:19:33;;;;;;;3.60;3.30;;;24.20;91.40;;;;;;6178371;28;86180;-96
2022/06/18 12:22:46;;;;;;;3.75;3.45;;;24.30;91.40;;;;;;6179790;28;88604;-96
2022/06/18 12:25:57;;;;;;;3.42;3.20;;;24.30;91.50;;;;;;6165341;28;89582;-96
2022/06/18 12:29:25;;;;;;;3.60;3.30;;;24.30;91.50;;;;;;6180003;28;88156;-96
2022/06/18 12:32:38;;;;;;;3.50;3.17;;;24.30;91.60;;;;;;6159003;28;90815;-96
2022/06/18 12:35:49;;;;;;;3.58;3.28;;;24.30;91.70;;;;;;6169576;28;87965;-96
2022/06/18 12:39:09;;;;;;;3.83;3.22;;;24.30;91.80;;;;;;6171889;28;88766;-96
2022/06/18 12:42:17;;;;;;;3.63;3.33;;;24.30;92.00;;;;;;6159050;28;88957;-96
2022/06/18 12:45:32;;;;;;;3.60;3.30;;;24.30;92.00;;;;;;6161865;28;88576;-96
2022/06/18 12:48:50;;;;;;;3.40;3.10;;;24.30;92.00;;;;;;6173128;28;87907;-96
2022/06/18 12:52:03;;;;;;;3.40;3.20;;;24.30;92.00;;;;;;6177487;28;87199;-96
2022/06/18 12:55:21;;;;;;;3.50;3.20;;;24.30;92.00;;;;;;6166363;28;89545;-96
2022/06/18 12:58:28;;;;;;;3.30;3.10;;;24.30;92.00;;;;;;6160374;28;87949;-95
2022/06/18 13:01:43;;;;;;;3.50;3.20;;;24.30;92.00;;;;;;6181086;28;88947;-96
2022/06/18 13:05:02;;;;;;;3.20;3.00;;;24.30;92.10;;;;;;6176138;28;88492;-96
2022/06/18 13:08:16;;;;;;;3.67;3.38;;;24.30;92.10;;;;;;6181627;28;90369;-96
2022/06/18 13:11:25;;;;;;;3.60;3.33;;;24.30;93.40;;;;;;6176386;28;88466;-96
2022/06/18 13:14:48;;;;;;;3.35;3.15;;;24.30;93.00;;;;;;6166673;28;89458;-96
2022/06/18 13:17:56;;;;;;;3.35;3.05;;;24.30;92.80;;;;;;6180231;28;88246;-96
2022/06/18 13:21:01;;;;;;;3.50;3.20;;;24.30;92.60;;;;;;6171185;28;89235;-96
2022/06/18 13:30:59;;;;;;;3.60;3.30;;;24.30;92.60;;;;;;6173419;28;87863;-96
2022/06/18 13:34:11;;;;;;;3.40;3.10;;;24.40;92.70;;;;;;6167471;28;89321;-96
2022/06/18 13:37:19;;;;;;;3.70;3.00;;;24.40;92.70;;;;;;6183964;28;88286;-96
2022/06/18 13:40:28;;;;;;;3.30;3.00;;;24.40;92.70;;;;;;6185466;28;89426;-96
2022/06/18 13:43:39;;;;;;;3.00;2.80;;;24.40;92.80;;;;;;6184552;28;87400;-96
2022/06/18 13:46:50;;;;;;;3.08;2.88;;;24.40;92.80;;;;;;6184241;28;88899;-96
2022/06/18 13:50:02;;;;;;;3.08;2.88;;;24.40;92.80;;;;;;6183720;28;88215;-96
2022/06/18 13:53:06;;;;;;;3.42;3.13;;;24.40;92.80;;;;;;6184271;28;88386;-96
2022/06/18 13:56:21;;;;;;;3.05;2.85;;;24.40;92.90;;;;;;6184954;28;86495;-96
2022/06/18 13:59:24;;;;;;;3.10;2.90;;;24.40;92.80;;;;;;6185029;28;88096;-96
2022/06/18 14:02:37;;;;;;;3.10;2.90;;;24.40;92.80;;;;;;6184169;28;88671;-96
2022/06/18 14:05:46;;;;;;;2.92;2.72;;;24.40;92.90;;;;;;6183413;28;88034;-96
2022/06/18 14:08:52;;;;;;;3.10;2.90;;;24.40;92.90;;;;;;6183949;28;89329;-96
2022/06/18 14:12:03;;;;;;;3.35;3.05;;;24.40;93.00;;;;;;6173013;28;88276;-96
2022/06/18 14:15:21;;;;;;;3.30;3.10;;;24.50;93.10;;;;;;6178699;28;87261;-96
2022/06/18 14:18:24;;;;;;;3.50;3.20;;;24.40;93.10;;;;;;6169527;28;89040;-95
2022/06/18 14:21:30;;;;;;;3.22;2.80;;;24.40;93.20;;;;;;6175903;28;89703;-95
2022/06/18 14:24:44;;;;;;;3.20;3.00;;;24.40;93.20;;;;;;6176020;28;88331;-96
2022/06/18 14:27:51;;;;;;;3.40;3.10;;;24.40;93.20;;;;;;6178491;28;87720;-96
2022/06/18 14:31:05;;;;;;;3.20;2.90;;;24.50;93.20;;;;;;6177547;28;89380;-96
2022/06/18 14:34:15;;;;;;;3.10;2.80;;;24.40;93.20;;;;;;6177135;28;87633;-96
2022/06/18 14:37:18;;;;;;;3.25;3.00;;;24.40;93.20;;;;;;6177376;28;88847;-96
2022/06/18 14:40:27;;;;;;;2.85;2.65;;;24.50;93.30;;;;;;6176955;28;88354;-96
2022/06/18 14:43:51;;;;;;;3.20;2.90;;;24.50;93.30;;;;;;6172416;28;90382;-96
2022/06/18 14:47:27;;;;;;;3.10;2.90;;;24.50;93.30;;;;;;6180933;28;89425;-96
2022/06/18 14:51:03;;;;;;;3.22;2.92;;;24.50;93.40;;;;;;6177980;28;87969;-95
2022/06/18 14:54:31;;;;;;;3.20;3.00;;;24.50;93.40;;;;;;6173134;28;89708;-96
2022/06/18 14:58:18;;;;;;;3.15;2.85;;;24.50;93.40;;;;;;6177013;28;87065;-96
2022/06/18 15:01:39;;;;;;;2.90;2.70;;;24.50;93.50;;;;;;6175428;28;87579;-96
2022/06/18 15:04:48;;;;;;;3.30;3.00;;;24.50;93.50;;;;;;6165780;28;89435;-96
2022/06/18 15:07:50;;;;;;;3.00;2.80;;;24.50;93.50;;;;;;6170286;28;88007;-96
2022/06/18 15:10:54;;;;;;;3.08;2.88;;;24.50;93.50;;;;;;6169580;28;89501;-96
2022/06/18 15:13:59;;;;;;;3.05;2.85;;;24.50;93.50;;;;;;6177687;28;88327;-96
2022/06/18 15:17:25;;;;;;;3.20;3.00;;;24.50;93.50;;;;;;6168081;28;88879;-96
2022/06/18 15:20:48;;;;;;;3.13;2.92;;;24.50;93.90;;;;;;6171410;28;88371;-96
2022/06/18 15:23:57;;;;;;;3.00;2.80;;;24.50;93.50;;;;;;6180231;28;87931;-96
2022/06/18 15:26:59;;;;;;;3.08;2.88;;;24.50;93.50;;;;;;6174773;28;88715;-96
2022/06/18 15:30:20;;;;;;;2.83;2.63;;;24.50;93.50;;;;;;6168846;28;87194;-95
2022/06/18 15:33:26;;;;;;;3.33;3.13;;;24.50;93.60;;;;;;6162226;28;87393;-96
2022/06/18 15:36:31;;;;;;;3.00;2.70;;;24.50;93.60;;;;;;6171546;28;87086;-96
2022/06/18 15:39:47;;;;;;;3.05;2.85;;;24.50;93.60;;;;;;6170243;28;88706;-96
2022/06/18 15:42:49;;;;;;;3.05;2.85;;;24.50;93.70;;;;;;6172974;28;89397;-96
2022/06/18 15:45:55;;;;;;;3.03;2.83;;;24.50;93.80;;;;;;6179343;28;87906;-96
2022/06/18 15:49:03;;;;;;;3.17;2.97;;;24.60;93.80;;;;;;6183846;28;87240;-96
2022/06/18 15:52:17;;;;;;;3.10;2.90;;;24.50;93.80;;;;;;6186227;28;89279;-96
2022/06/18 15:55:27;;;;;;;3.20;3.00;;;24.50;93.80;;;;;;6186574;28;87085;-96
2022/06/18 15:58:29;;;;;;;3.00;2.80;;;24.50;93.70;;;;;;6185699;28;87657;-96
2022/06/18 16:01:37;;;;;;;3.03;2.83;;;24.50;93.70;;;;;;6186195;28;87094;-96
2022/06/18 16:04:40;;;;;;;3.10;2.80;;;24.50;93.70;;;;;;6186972;28;88784;-96
2022/06/18 16:07:52;;;;;;;2.80;2.60;;;24.50;93.60;;;;;;6186496;28;89078;-96
2022/06/18 16:10:54;;;;;;;3.08;2.88;;;24.50;93.60;;;;;;6186138;28;88961;-96
2022/06/18 16:14:26;;;;;;;3.10;2.90;;;24.50;93.60;;;;;;6182133;28;89235;-96
2022/06/18 16:17:30;;;;;;;3.05;2.80;;;24.50;93.60;;;;;;6179668;28;88229;-96
2022/06/18 16:20:34;;;;;;;4.28;2.97;;;24.50;94.10;;;;;;6174772;28;88930;-95
2022/06/18 16:23:38;;;;;;;4.95;2.95;;;24.50;95.90;;;;;;6182079;28;88224;-96
2022/06/18 16:26:40;;;;;;;4.00;2.90;;;24.60;97.30;;;;;;6169393;28;88317;-96
2022/06/18 16:29:42;;;;;;;6.05;3.10;;;24.60;96.90;;;;;;6174705;28;88343;-96
2022/06/18 16:32:47;;;;;;;3.00;2.80;;;24.60;96.80;;;;;;6175378;28;88563;-95
2022/06/18 16:36:10;;;;;;;3.40;3.10;;;24.60;97.10;;;;;;6174438;28;87601;-95
2022/06/18 16:39:13;;;;;;;3.10;2.80;;;24.60;96.80;;;;;;6166047;28;89376;-95